Terminal Aerodrome Forecast
Issued by NWS

Home | Current Version | Previous Version | Text Only | Print | Product List | Glossary On
Versions: 1 2 3 4 5 6 7 8 9 10 11 12 13
000
FTUS42 KMLB 232324
TAFTIX
TAF
KTIX 232324Z 2400/2424 36008KT P6SM SCT020 SCT035
     FM240800 35006KT P6SM SCT005 BKN010
      TEMPO 2409/2413 6SM BR BKN005
     FM241300 01008KT P6SM SCT005 SCT025
     FM241500 04010KT P6SM SCT030
      AMD NOT SKED 2402/2412=

USA.gov is the U.S. government's official web portal to all federal, state and local government web resources and services.